Time;durP1;ratioP1;P1;durP2;ratioP2;P2;SDS_P1;SDS_P2;PMS_P1;PMS_P2;Temp;Humidity;BMP_temperature;BMP_pressure;BME280_temperature;BME280_humidity;BME280_pressure;Samples;Min_cycle;Max_cycle;Signal;HPM_P1;HPM_P2
2021/05/27 00:01:37;;;;;;;;;;;;;;;;;;5092317;28;19924;-68
2021/05/27 00:04:03;;;;;;;;;;;;;;;;;;5082875;28;19975;-68
2021/05/27 00:06:30;;;;;;;;;;;;;;;;;;5091062;28;19930;-67
2021/05/27 00:08:56;;;;;;;;;;;;;;;;;;5092345;28;19924;-67
2021/05/27 00:11:23;;;;;;;;;;;;;;;;;;5091844;28;19924;-67
2021/05/27 00:13:49;;;;;;;;;;;;;;;;;;5092348;28;20397;-67
2021/05/27 00:16:16;;;;;;;;;;;;;;;;;;5092020;28;19934;-68
2021/05/27 00:18:42;;;;;;;;;;;;;;;;;;5091951;28;19924;-67
2021/05/27 00:21:09;;;;;;;;;;;;;;;;;;5092151;28;19924;-67
2021/05/27 00:23:35;;;;;;;;;;;;;;;;;;5092063;28;19973;-67
2021/05/27 00:26:02;;;;;;;;;;;;;;;;;;5092511;28;19924;-67
2021/05/27 00:28:28;;;;;;;;;;;;;;;;;;5091775;28;19931;-67
2021/05/27 00:30:55;;;;;;;;;;;;;;;;;;5091735;28;19975;-67
2021/05/27 00:33:21;;;;;;;;;;;;;;;;;;5092152;28;19974;-68
2021/05/27 00:35:48;;;;;;;;;;;;;;;;;;5091610;28;19946;-67
2021/05/27 00:38:14;;;;;;;;;;;;;;;;;;5091601;28;19924;-67
2021/05/27 00:40:41;;;;;;;;;;;;;;;;;;5091564;28;19984;-67
2021/05/27 00:43:07;;;;;;;;;;;;;;;;;;5091415;28;19924;-67
2021/05/27 00:45:33;;;;;;;;;;;;;;;;;;5091986;28;19924;-66
2021/05/27 00:48:00;;;;;;;;;;;;;;;;;;5091227;28;19969;-67
2021/05/27 00:50:26;;;;;;;;;;;;;;;;;;5091052;28;19985;-67
2021/05/27 00:52:53;;;;;;;;;;;;;;;;;;5091748;28;19942;-67
2021/05/27 00:55:19;;;;;;;;;;;;;;;;;;5091770;28;19930;-67
2021/05/27 00:57:46;;;;;;;;;;;;;;;;;;5094279;28;19924;-67
2021/05/27 01:00:12;;;;;;;;;;;;;;;;;;5095267;28;20278;-67
2021/05/27 01:02:39;;;;;;;;;;;;;;;;;;5095558;28;19924;-67
2021/05/27 01:05:05;;;;;;;;;;;;;;;;;;5095616;28;19928;-68
2021/05/27 01:07:32;;;;;;;;;;;;;;;;;;5095327;28;20007;-68
2021/05/27 01:09:58;;;;;;;;;;;;;;;;;;5095193;28;20438;-67
2021/05/27 01:12:25;;;;;;;;;;;;;;;;;;5094799;28;19993;-67
2021/05/27 01:17:36;;;;;;;;;;;;;;;;;;5095815;28;20379;-68
2021/05/27 01:20:02;;;;;;;;;;;;;;;;;;5094768;28;19924;-67
2021/05/27 01:22:29;;;;;;;;;;;;;;;;;;5095788;28;19924;-68
2021/05/27 01:24:55;;;;;;;;;;;;;;;;;;5095430;28;19935;-67
2021/05/27 01:27:22;;;;;;;;;;;;;;;;;;5094988;28;20225;-67
2021/05/27 01:29:48;;;;;;;;;;;;;;;;;;5095223;28;20019;-67
2021/05/27 01:32:15;;;;;;;;;;;;;;;;;;5095225;28;19932;-68
2021/05/27 01:34:41;;;;;;;;;;;;;;;;;;5095412;28;19924;-67
2021/05/27 01:37:08;;;;;;;;;;;;;;;;;;5095262;28;19932;-67
2021/05/27 01:39:34;;;;;;;;;;;;;;;;;;5093813;28;19924;-67
2021/05/27 01:42:02;;;;;;;;;;;;;;;;;;5094558;28;19924;-68
2021/05/27 01:44:28;;;;;;;;;;;;;;;;;;5095078;28;19977;-68
2021/05/27 01:46:55;;;;;;;;;;;;;;;;;;5094594;28;20315;-68
2021/05/27 01:49:21;;;;;;;;;;;;;;;;;;5094094;28;19931;-68
2021/05/27 01:51:49;;;;;;;;;;;;;;;;;;5094649;28;19932;-72
2021/05/27 01:54:15;;;;;;;;;;;;;;;;;;5094883;28;20385;-68
2021/05/27 01:56:41;;;;;;;;;;;;;;;;;;5093845;28;19924;-68
2021/05/27 01:59:08;;;;;;;;;;;;;;;;;;5093751;28;20002;-68
2021/05/27 02:01:34;;;;;;;;;;;;;;;;;;5094855;28;19928;-68
2021/05/27 02:04:01;;;;;;;;;;;;;;;;;;5094858;28;19928;-67
2021/05/27 02:06:27;;;;;;;;;;;;;;;;;;5093754;28;19938;-67
2021/05/27 02:09:10;;;;;;;;;;;;;;;;;;5094003;28;20295;-69
2021/05/27 02:11:36;;;;;;;;;;;;;;;;;;5094331;28;19924;-67
2021/05/27 02:14:03;;;;;;;;;;;;;;;;;;5094486;28;19931;-66
2021/05/27 02:16:29;;;;;;;;;;;;;;;;;;5094122;28;20479;-67
2021/05/27 02:18:56;;;;;;;;;;;;;;;;;;5093341;28;19992;-67
2021/05/27 02:21:22;;;;;;;;;;;;;;;;;;5094149;28;19924;-67
2021/05/27 02:23:49;;;;;;;;;;;;;;;;;;5094479;28;19928;-67
2021/05/27 02:26:15;;;;;;;;;;;;;;;;;;5093622;28;19928;-67
2021/05/27 02:28:41;;;;;;;;;;;;;;;;;;5094690;28;20273;-68
2021/05/27 02:31:08;;;;;;;;;;;;;;;;;;5093867;28;19930;-67
2021/05/27 02:33:34;;;;;;;;;;;;;;;;;;5094837;28;19928;-67
2021/05/27 02:36:01;;;;;;;;;;;;;;;;;;5094408;28;19924;-67
2021/05/27 02:38:27;;;;;;;;;;;;;;;;;;5094631;28;19931;-67
2021/05/27 02:40:54;;;;;;;;;;;;;;;;;;5093859;28;19977;-67
2021/05/27 02:43:20;;;;;;;;;;;;;;;;;;5094173;28;19924;-67
2021/05/27 02:45:47;;;;;;;;;;;;;;;;;;5094283;28;19969;-67
2021/05/27 02:48:13;;;;;;;;;;;;;;;;;;5093938;28;19924;-67
2021/05/27 02:50:40;;;;;;;;;;;;;;;;;;5094124;28;20015;-68
2021/05/27 02:53:06;;;;;;;;;;;;;;;;;;5095051;28;19931;-68
2021/05/27 02:55:33;;;;;;;;;;;;;;;;;;5099796;28;20003;-68
2021/05/27 02:57:59;;;;;;;;;;;;;;;;;;5105198;28;19983;-68
2021/05/27 03:00:25;;;;;;;;;;;;;;;;;;5104913;28;19924;-68
2021/05/27 03:02:52;;;;;;;;;;;;;;;;;;5096120;28;20354;-67
2021/05/27 03:05:18;;;;;;;;;;;;;;;;;;5097876;28;19925;-68
2021/05/27 03:07:45;;;;;;;;;;;;;;;;;;5096998;28;20448;-68
2021/05/27 03:10:11;;;;;;;;;;;;;;;;;;5096423;28;19930;-67
2021/05/27 03:12:38;;;;;;;;;;;;;;;;;;5097376;28;20287;-67
2021/05/27 03:15:04;;;;;;;;;;;;;;;;;;5095935;28;19928;-67
2021/05/27 03:17:31;;;;;;;;;;;;;;;;;;5096968;28;19970;-67
2021/05/27 03:19:57;;;;;;;;;;;;;;;;;;5093304;28;19934;-67
2021/05/27 03:22:24;;;;;;;;;;;;;;;;;;5093284;28;19974;-68
2021/05/27 03:24:50;;;;;;;;;;;;;;;;;;5092879;28;19924;-67
2021/05/27 03:27:17;;;;;;;;;;;;;;;;;;5092705;28;19931;-68
2021/05/27 03:29:43;;;;;;;;;;;;;;;;;;5092789;28;19931;-70
2021/05/27 03:32:10;;;;;;;;;;;;;;;;;;5092720;28;19924;-68
2021/05/27 03:34:36;;;;;;;;;;;;;;;;;;5093015;28;19950;-67
2021/05/27 03:37:03;;;;;;;;;;;;;;;;;;5092320;28;19956;-67
2021/05/27 03:39:29;;;;;;;;;;;;;;;;;;5092651;28;19931;-67
2021/05/27 03:41:56;;;;;;;;;;;;;;;;;;5095954;28;19924;-68
2021/05/27 03:44:22;;;;;;;;;;;;;;;;;;5096083;28;19927;-67
2021/05/27 03:46:49;;;;;;;;;;;;;;;;;;5092487;28;20288;-67
2021/05/27 03:49:15;;;;;;;;;;;;;;;;;;5093013;28;19944;-67
2021/05/27 03:51:42;;;;;;;;;;;;;;;;;;5092277;28;20337;-67
2021/05/27 03:54:08;;;;;;;;;;;;;;;;;;5092398;28;19974;-67
2021/05/27 03:56:35;;;;;;;;;;;;;;;;;;5091957;28;20329;-69
2021/05/27 04:01:46;;;;;;;;;;;;;;;;;;5087954;28;19956;-67
2021/05/27 04:07:10;;;;;;;;;;;;;;;;;;5090324;28;20401;-67
2021/05/27 04:09:36;;;;;;;;;;;;;;;;;;5090717;28;20296;-67
2021/05/27 04:15:19;;;;;;;;;;;;;;;;;;5090395;28;20407;-67
2021/05/27 04:17:30;;;;;;;;;;;;;;;;;;5091128;28;19928;-67
2021/05/27 04:19:56;;;;;;;;;;;;;;;;;;5091060;28;19924;-67
2021/05/27 04:22:23;;;;;;;;;;;;;;;;;;5091381;28;20031;-67
2021/05/27 04:24:49;;;;;;;;;;;;;;;;;;5091461;28;20145;-69
2021/05/27 04:27:16;;;;;;;;;;;;;;;;;;5090865;28;19924;-68
2021/05/27 04:29:42;;;;;;;;;;;;;;;;;;5091139;28;19934;-69
2021/05/27 04:32:51;;;;;;;;;;;;;;;;;;5090587;28;19924;-68
2021/05/27 04:34:56;;;;;;;;;;;;;;;;;;5090624;28;19928;-69
2021/05/27 04:37:22;;;;;;;;;;;;;;;;;;5090203;28;19949;-68
2021/05/27 04:39:49;;;;;;;;;;;;;;;;;;5087172;28;19924;-68
2021/05/27 04:42:15;;;;;;;;;;;;;;;;;;5094297;28;20257;-69
2021/05/27 04:44:42;;;;;;;;;;;;;;;;;;5090842;28;19969;-68
2021/05/27 04:47:08;;;;;;;;;;;;;;;;;;5090390;28;19925;-69
2021/05/27 04:49:35;;;;;;;;;;;;;;;;;;5090639;28;19928;-68
2021/05/27 04:52:01;;;;;;;;;;;;;;;;;;5090146;28;20364;-69
2021/05/27 04:54:27;;;;;;;;;;;;;;;;;;5090930;28;19931;-68
2021/05/27 04:56:54;;;;;;;;;;;;;;;;;;5090438;28;20165;-68
2021/05/27 04:59:20;;;;;;;;;;;;;;;;;;5090228;28;20048;-68
2021/05/27 05:01:47;;;;;;;;;;;;;;;;;;5091223;28;19928;-68
2021/05/27 05:04:13;;;;;;;;;;;;;;;;;;5090343;28;19975;-68
2021/05/27 05:06:40;;;;;;;;;;;;;;;;;;5090681;28;19931;-68
2021/05/27 05:09:06;;;;;;;;;;;;;;;;;;5090859;28;20400;-69
2021/05/27 05:11:33;;;;;;;;;;;;;;;;;;5090437;28;19932;-69
2021/05/27 05:14:00;;;;;;;;;;;;;;;;;;5091343;28;19924;-68
2021/05/27 05:16:26;;;;;;;;;;;;;;;;;;5090671;28;19924;-68
2021/05/27 05:18:53;;;;;;;;;;;;;;;;;;5091149;28;20368;-70
2021/05/27 05:21:19;;;;;;;;;;;;;;;;;;5090881;28;19977;-68
2021/05/27 05:23:46;;;;;;;;;;;;;;;;;;5091320;28;19924;-68
2021/05/27 05:26:12;;;;;;;;;;;;;;;;;;5091217;28;20304;-69
2021/05/27 05:28:38;;;;;;;;;;;;;;;;;;5091065;28;19928;-69
2021/05/27 05:31:05;;;;;;;;;;;;;;;;;;5090762;28;20350;-68
2021/05/27 05:33:31;;;;;;;;;;;;;;;;;;5090384;28;19924;-68
2021/05/27 05:35:58;;;;;;;;;;;;;;;;;;5090408;28;20445;-68
2021/05/27 05:38:25;;;;;;;;;;;;;;;;;;5090653;28;19928;-69
2021/05/27 05:40:51;;;;;;;;;;;;;;;;;;5081688;28;20566;-68
2021/05/27 05:43:18;;;;;;;;;;;;;;;;;;5085991;28;20355;-68
2021/05/27 05:45:44;;;;;;;;;;;;;;;;;;5084753;28;20014;-68
2021/05/27 05:48:11;;;;;;;;;;;;;;;;;;5083806;28;20940;-69
2021/05/27 05:50:48;;;;;;;;;;;;;;;;;;5079975;28;19943;-69
2021/05/27 05:53:14;;;;;;;;;;;;;;;;;;5091387;28;20026;-69
2021/05/27 05:55:44;;;;;;;;;;;;;;;;;;5076793;28;20439;-69
2021/05/27 05:58:10;;;;;;;;;;;;;;;;;;5092603;28;19931;-69
2021/05/27 06:00:37;;;;;;;;;;;;;;;;;;5086337;28;19925;-69
2021/05/27 06:03:03;;;;;;;;;;;;;;;;;;5091579;28;19924;-70
2021/05/27 06:05:30;;;;;;;;;;;;;;;;;;5078545;28;19924;-69
2021/05/27 06:07:56;;;;;;;;;;;;;;;;;;5091598;28;19924;-69
2021/05/27 06:10:23;;;;;;;;;;;;;;;;;;5083021;28;19931;-70
2021/05/27 06:12:49;;;;;;;;;;;;;;;;;;5080864;28;20440;-70
2021/05/27 06:15:20;;;;;;;;;;;;;;;;;;5091914;28;19924;-70
2021/05/27 06:17:46;;;;;;;;;;;;;;;;;;5089316;28;19969;-69
2021/05/27 06:20:13;;;;;;;;;;;;;;;;;;5080855;28;20336;-70
2021/05/27 06:22:39;;;;;;;;;;;;;;;;;;5091302;28;20525;-70
2021/05/27 06:25:06;;;;;;;;;;;;;;;;;;5091224;28;19924;-70
2021/05/27 06:27:32;;;;;;;;;;;;;;;;;;5091935;28;19931;-70
2021/05/27 06:29:58;;;;;;;;;;;;;;;;;;5085013;28;19928;-70
2021/05/27 06:32:25;;;;;;;;;;;;;;;;;;5086299;28;19977;-70
2021/05/27 06:34:52;;;;;;;;;;;;;;;;;;5092613;28;19931;-70
2021/05/27 06:37:19;;;;;;;;;;;;;;;;;;5089902;28;19940;-70
2021/05/27 06:39:45;;;;;;;;;;;;;;;;;;5085762;28;20046;-70
2021/05/27 06:42:13;;;;;;;;;;;;;;;;;;5077508;28;19931;-68
2021/05/27 06:44:39;;;;;;;;;;;;;;;;;;5084836;28;19924;-67
2021/05/27 06:47:06;;;;;;;;;;;;;;;;;;5090449;28;19938;-68
2021/05/27 06:49:32;;;;;;;;;;;;;;;;;;5081596;28;19932;-69
2021/05/27 06:52:00;;;;;;;;;;;;;;;;;;5082581;28;19924;-69
2021/05/27 06:54:27;;;;;;;;;;;;;;;;;;5084062;28;19931;-69
2021/05/27 06:56:53;;;;;;;;;;;;;;;;;;5076852;28;19925;-69
2021/05/27 06:59:20;;;;;;;;;;;;;;;;;;5086653;28;19930;-69
2021/05/27 07:01:46;;;;;;;;;;;;;;;;;;5087176;28;19924;-69
2021/05/27 07:04:13;;;;;;;;;;;;;;;;;;5090181;28;19924;-69
2021/05/27 07:06:39;;;;;;;;;;;;;;;;;;5091488;28;19932;-69
2021/05/27 07:09:06;;;;;;;;;;;;;;;;;;5091817;28;20359;-68
2021/05/27 07:11:32;;;;;;;;;;;;;;;;;;5082465;28;19924;-68
2021/05/27 07:13:59;;;;;;;;;;;;;;;;;;5092740;28;20408;-68
2021/05/27 07:16:27;;;;;;;;;;;;;;;;;;5091177;28;19984;-69
2021/05/27 07:18:53;;;;;;;;;;;;;;;;;;5091004;28;20312;-68
2021/05/27 07:21:20;;;;;;;;;;;;;;;;;;5081782;28;20335;-68
2021/05/27 07:23:46;;;;;;;;;;;;;;;;;;5091782;28;20056;-68
2021/05/27 07:26:12;;;;;;;;;;;;;;;;;;5091058;28;19977;-68
2021/05/27 07:28:39;;;;;;;;;;;;;;;;;;5091389;28;20356;-69
2021/05/27 07:31:06;;;;;;;;;;;;;;;;;;5084940;28;20418;-68
2021/05/27 07:33:33;;;;;;;;;;;;;;;;;;5091872;28;19932;-69
2021/05/27 07:35:59;;;;;;;;;;;;;;;;;;5089274;28;19924;-69
2021/05/27 07:38:26;;;;;;;;;;;;;;;;;;5090873;28;19924;-67
2021/05/27 07:40:52;;;;;;;;;;;;;;;;;;5078936;28;19924;-68
2021/05/27 07:43:19;;;;;;;;;;;;;;;;;;5090773;28;19924;-69
2021/05/27 07:45:45;;;;;;;;;;;;;;;;;;5082913;28;19924;-68
2021/05/27 07:48:12;;;;;;;;;;;;;;;;;;5088008;28;19932;-69
2021/05/27 07:50:38;;;;;;;;;;;;;;;;;;5082713;28;19932;-68
2021/05/27 07:53:05;;;;;;;;;;;;;;;;;;5091349;28;19935;-69
2021/05/27 07:55:33;;;;;;;;;;;;;;;;;;5083188;28;19939;-68
2021/05/27 07:57:59;;;;;;;;;;;;;;;;;;5082234;28;20307;-67
2021/05/27 08:00:26;;;;;;;;;;;;;;;;;;5088929;28;19985;-68
2021/05/27 08:02:52;;;;;;;;;;;;;;;;;;5079284;28;19978;-68
2021/05/27 08:05:20;;;;;;;;;;;;;;;;;;5083624;28;19928;-68
2021/05/27 08:07:47;;;;;;;;;;;;;;;;;;5085591;28;20016;-68
2021/05/27 08:10:13;;;;;;;;;;;;;;;;;;5088450;28;19931;-69
2021/05/27 08:12:40;;;;;;;;;;;;;;;;;;5098124;28;19924;-67
2021/05/27 08:15:06;;;;;;;;;;;;;;;;;;5096973;28;20023;-68
2021/05/27 08:17:33;;;;;;;;;;;;;;;;;;5094733;28;20185;-68
2021/05/27 08:19:59;;;;;;;;;;;;;;;;;;5105832;28;19979;-69
2021/05/27 08:22:27;;;;;;;;;;;;;;;;;;5095385;28;20152;-68
2021/05/27 08:24:53;;;;;;;;;;;;;;;;;;5100701;28;20373;-68
2021/05/27 08:27:20;;;;;;;;;;;;;;;;;;5093220;28;19924;-69
2021/05/27 08:29:46;;;;;;;;;;;;;;;;;;5086190;28;19931;-68
2021/05/27 08:32:13;;;;;;;;;;;;;;;;;;5080822;28;19924;-67
2021/05/27 08:34:39;;;;;;;;;;;;;;;;;;5089794;28;20384;-67
2021/05/27 08:37:06;;;;;;;;;;;;;;;;;;5089760;28;19928;-68
2021/05/27 08:39:32;;;;;;;;;;;;;;;;;;5084050;28;19932;-67
2021/05/27 08:42:00;;;;;;;;;;;;;;;;;;5085308;28;19924;-67
2021/05/27 08:44:26;;;;;;;;;;;;;;;;;;5090952;28;19924;-68
2021/05/27 08:46:53;;;;;;;;;;;;;;;;;;5078865;28;19953;-68
2021/05/27 08:49:19;;;;;;;;;;;;;;;;;;5097771;22;20019;-70
2021/05/27 08:51:46;;;;;;;;;;;;;;;;;;5086513;28;19934;-67
2021/05/27 08:54:12;;;;;;;;;;;;;;;;;;5090305;28;20015;-69
2021/05/27 08:56:39;;;;;;;;;;;;;;;;;;5088297;28;19928;-68
2021/05/27 08:59:05;;;;;;;;;;;;;;;;;;5069063;28;19929;-70
2021/05/27 09:01:32;;;;;;;;;;;;;;;;;;5068173;28;19925;-67
2021/05/27 09:03:58;;;;;;;;;;;;;;;;;;5070184;28;20396;-68
2021/05/27 09:06:25;;;;;;;;;;;;;;;;;;5069752;28;20364;-68
2021/05/27 09:08:51;;;;;;;;;;;;;;;;;;5064520;28;19925;-68
2021/05/27 09:11:20;;;;;;;;;;;;;;;;;;5064187;28;19925;-68
2021/05/27 09:13:47;;;;;;;;;;;;;;;;;;5063621;28;19929;-70
2021/05/27 09:16:13;;;;;;;;;;;;;;;;;;5062577;28;19928;-68
2021/05/27 09:18:40;;;;;;;;;;;;;;;;;;5066002;28;19924;-68
2021/05/27 09:21:06;;;;;;;;;;;;;;;;;;5068085;28;20384;-68
2021/05/27 09:23:33;;;;;;;;;;;;;;;;;;5063436;28;19963;-68
2021/05/27 09:26:02;;;;;;;;;;;;;;;;;;5064774;28;19929;-66
2021/05/27 09:28:28;;;;;;;;;;;;;;;;;;5064355;28;19932;-69
2021/05/27 09:30:55;;;;;;;;;;;;;;;;;;5063474;28;20324;-68
2021/05/27 09:33:22;;;;;;;;;;;;;;;;;;5068486;28;19925;-68
2021/05/27 09:35:48;;;;;;;;;;;;;;;;;;5062799;28;19932;-67
2021/05/27 09:38:15;;;;;;;;;;;;;;;;;;5071235;28;19977;-67
2021/05/27 09:40:42;;;;;;;;;;;;;;;;;;5063362;28;19932;-68
2021/05/27 09:43:08;;;;;;;;;;;;;;;;;;5069815;28;19939;-68
2021/05/27 09:45:35;;;;;;;;;;;;;;;;;;5066492;28;19969;-67
2021/05/27 09:48:01;;;;;;;;;;;;;;;;;;5069661;28;19931;-68
2021/05/27 09:50:33;;;;;;;;;;;;;;;;;;5066728;28;19933;-67
2021/05/27 09:53:00;;;;;;;;;;;;;;;;;;5070179;28;20389;-68
2021/05/27 09:55:26;;;;;;;;;;;;;;;;;;5068615;28;19935;-68
2021/05/27 09:57:53;;;;;;;;;;;;;;;;;;5067179;28;19975;-68
2021/05/27 10:00:19;;;;;;;;;;;;;;;;;;5066024;28;19928;-69
2021/05/27 10:02:46;;;;;;;;;;;;;;;;;;5066195;28;19929;-67
2021/05/27 10:05:14;;;;;;;;;;;;;;;;;;5067175;28;19931;-67
2021/05/27 10:07:40;;;;;;;;;;;;;;;;;;5064825;28;19982;-68
2021/05/27 10:10:07;;;;;;;;;;;;;;;;;;5067419;28;19932;-66
2021/05/27 10:12:33;;;;;;;;;;;;;;;;;;5067388;28;19924;-67
2021/05/27 10:15:00;;;;;;;;;;;;;;;;;;5070372;28;19924;-67
2021/05/27 10:17:26;;;;;;;;;;;;;;;;;;5068319;28;19935;-67
2021/05/27 10:19:53;;;;;;;;;;;;;;;;;;5064891;28;20209;-68
2021/05/27 10:22:19;;;;;;;;;;;;;;;;;;5067203;28;20007;-67
2021/05/27 10:24:46;;;;;;;;;;;;;;;;;;5068156;28;19936;-68
2021/05/27 10:27:12;;;;;;;;;;;;;;;;;;5066440;28;19925;-68
2021/05/27 10:29:39;;;;;;;;;;;;;;;;;;5066171;28;19924;-67
2021/05/27 10:32:05;;;;;;;;;;;;;;;;;;5066686;28;19936;-67
2021/05/27 10:34:32;;;;;;;;;;;;;;;;;;5063477;28;19928;-68
2021/05/27 10:36:58;;;;;;;;;;;;;;;;;;5066626;28;19931;-67
2021/05/27 10:39:25;;;;;;;;;;;;;;;;;;5066258;28;19931;-68
2021/05/27 10:41:51;;;;;;;;;;;;;;;;;;5069774;28;19925;-67
2021/05/27 10:44:18;;;;;;;;;;;;;;;;;;5065487;28;19925;-67
2021/05/27 10:46:44;;;;;;;;;;;;;;;;;;5066685;28;19928;-67
2021/05/27 10:49:11;;;;;;;;;;;;;;;;;;5063292;28;20054;-67
2021/05/27 10:51:43;;;;;;;;;;;;;;;;;;5069643;28;19975;-68
2021/05/27 10:54:10;;;;;;;;;;;;;;;;;;5065803;28;19932;-68
2021/05/27 10:56:37;;;;;;;;;;;;;;;;;;5067781;28;19925;-67
2021/05/27 10:59:04;;;;;;;;;;;;;;;;;;5065286;28;19932;-70
2021/05/27 11:01:30;;;;;;;;;;;;;;;;;;5064697;28;20539;-68
2021/05/27 11:03:57;;;;;;;;;;;;;;;;;;5065833;28;19925;-68
2021/05/27 11:06:23;;;;;;;;;;;;;;;;;;5063778;28;20292;-68
2021/05/27 11:08:50;;;;;;;;;;;;;;;;;;5064821;28;19924;-68
2021/05/27 11:11:16;;;;;;;;;;;;;;;;;;5065422;28;19962;-68
2021/05/27 11:13:43;;;;;;;;;;;;;;;;;;5062989;28;19924;-69
2021/05/27 11:16:09;;;;;;;;;;;;;;;;;;5063362;28;20058;-68
2021/05/27 11:18:37;;;;;;;;;;;;;;;;;;5066277;28;19982;-68
2021/05/27 11:21:03;;;;;;;;;;;;;;;;;;5065141;28;19978;-67
2021/05/27 11:23:30;;;;;;;;;;;;;;;;;;5067969;28;19964;-67
2021/05/27 11:25:57;;;;;;;;;;;;;;;;;;5068746;28;19935;-67
2021/05/27 11:28:23;;;;;;;;;;;;;;;;;;5066855;28;19990;-68
2021/05/27 11:30:52;;;;;;;;;;;;;;;;;;5063372;28;19985;-68
2021/05/27 11:33:19;;;;;;;;;;;;;;;;;;5065334;28;19925;-68
2021/05/27 11:35:46;;;;;;;;;;;;;;;;;;5063137;28;20021;-68
2021/05/27 11:38:12;;;;;;;;;;;;;;;;;;5063635;28;20447;-68
2021/05/27 11:40:39;;;;;;;;;;;;;;;;;;5063773;28;19931;-68
2021/05/27 11:43:05;;;;;;;;;;;;;;;;;;5067026;28;19929;-68
2021/05/27 11:45:32;;;;;;;;;;;;;;;;;;5068632;28;20015;-67
2021/05/27 11:47:58;;;;;;;;;;;;;;;;;;5064029;28;19931;-68
2021/05/27 11:50:25;;;;;;;;;;;;;;;;;;5067796;28;19932;-67
2021/05/27 11:52:51;;;;;;;;;;;;;;;;;;5067225;28;19970;-68
2021/05/27 11:55:18;;;;;;;;;;;;;;;;;;5063271;28;19925;-68
2021/05/27 11:57:44;;;;;;;;;;;;;;;;;;5063174;28;19970;-68
2021/05/27 12:00:11;;;;;;;;;;;;;;;;;;5067590;28;20325;-68
2021/05/27 12:02:37;;;;;;;;;;;;;;;;;;5062675;28;20123;-68
2021/05/27 12:05:04;;;;;;;;;;;;;;;;;;5064775;28;19924;-68
2021/05/27 12:07:30;;;;;;;;;;;;;;;;;;5066473;28;19924;-68
2021/05/27 12:09:57;;;;;;;;;;;;;;;;;;5063797;28;20018;-68
2021/05/27 12:12:24;;;;;;;;;;;;;;;;;;5068228;28;19946;-68
2021/05/27 12:14:53;;;;;;;;;;;;;;;;;;5065888;28;19939;-67
2021/05/27 12:17:19;;;;;;;;;;;;;;;;;;5062766;28;19925;-68
2021/05/27 12:19:45;;;;;;;;;;;;;;;;;;5063965;28;19928;-68
2021/05/27 12:22:12;;;;;;;;;;;;;;;;;;5061864;28;20383;-67
2021/05/27 12:24:38;;;;;;;;;;;;;;;;;;5068084;28;19977;-68
2021/05/27 12:27:05;;;;;;;;;;;;;;;;;;5064057;28;19925;-68
2021/05/27 12:29:31;;;;;;;;;;;;;;;;;;5061607;28;20344;-67
2021/05/27 12:31:58;;;;;;;;;;;;;;;;;;5061994;28;19924;-68
2021/05/27 12:34:25;;;;;;;;;;;;;;;;;;5065551;28;19939;-68
2021/05/27 12:36:51;;;;;;;;;;;;;;;;;;5066541;28;19924;-67
2021/05/27 12:39:18;;;;;;;;;;;;;;;;;;5061539;28;19931;-68
2021/05/27 12:41:44;;;;;;;;;;;;;;;;;;5063395;28;19979;-66
2021/05/27 12:44:11;;;;;;;;;;;;;;;;;;5064375;28;20204;-67
2021/05/27 12:46:37;;;;;;;;;;;;;;;;;;5063259;28;19929;-68
2021/05/27 12:49:04;;;;;;;;;;;;;;;;;;5061279;28;19924;-68
2021/05/27 12:51:30;;;;;;;;;;;;;;;;;;5067507;28;19933;-68
2021/05/27 12:53:58;;;;;;;;;;;;;;;;;;5067342;28;20315;-67
2021/05/27 12:56:24;;;;;;;;;;;;;;;;;;5067700;28;19960;-68
2021/05/27 12:58:51;;;;;;;;;;;;;;;;;;5068216;28;20353;-68
2021/05/27 13:01:17;;;;;;;;;;;;;;;;;;5065835;28;19931;-68
2021/05/27 13:03:44;;;;;;;;;;;;;;;;;;5068774;28;21349;-68
2021/05/27 13:06:10;;;;;;;;;;;;;;;;;;5066525;28;20296;-68
2021/05/27 13:08:37;;;;;;;;;;;;;;;;;;5071816;28;20325;-68
2021/05/27 13:11:03;;;;;;;;;;;;;;;;;;5066207;28;19978;-68
2021/05/27 13:13:30;;;;;;;;;;;;;;;;;;5070100;28;19930;-68
2021/05/27 13:15:56;;;;;;;;;;;;;;;;;;5069910;28;19986;-68
2021/05/27 13:18:23;;;;;;;;;;;;;;;;;;5070813;28;19925;-68
2021/05/27 13:20:49;;;;;;;;;;;;;;;;;;5065601;28;20295;-68
2021/05/27 13:23:16;;;;;;;;;;;;;;;;;;5070226;28;19935;-68
2021/05/27 13:25:42;;;;;;;;;;;;;;;;;;5072676;28;19928;-68
2021/05/27 13:28:09;;;;;;;;;;;;;;;;;;5071167;28;20063;-67
2021/05/27 13:30:35;;;;;;;;;;;;;;;;;;5068380;28;20032;-68
2021/05/27 13:33:02;;;;;;;;;;;;;;;;;;5067968;28;19924;-68
2021/05/27 13:35:28;;;;;;;;;;;;;;;;;;5068560;28;19925;-68
2021/05/27 13:37:56;;;;;;;;;;;;;;;;;;5069772;28;19930;-68
2021/05/27 13:40:23;;;;;;;;;;;;;;;;;;5061661;28;19925;-67
2021/05/27 13:42:50;;;;;;;;;;;;;;;;;;5068862;28;20020;-69
2021/05/27 13:45:17;;;;;;;;;;;;;;;;;;5065678;28;19932;-69
2021/05/27 13:47:44;;;;;;;;;;;;;;;;;;5066058;28;19925;-69
2021/05/27 13:50:10;;;;;;;;;;;;;;;;;;5065616;28;20440;-69
2021/05/27 13:52:38;;;;;;;;;;;;;;;;;;5067554;28;19931;-69
2021/05/27 13:55:04;;;;;;;;;;;;;;;;;;5070212;28;19928;-69
2021/05/27 13:57:31;;;;;;;;;;;;;;;;;;5068493;28;19971;-69
2021/05/27 13:59:57;;;;;;;;;;;;;;;;;;5069975;28;19933;-69
2021/05/27 14:02:23;;;;;;;;;;;;;;;;;;5068591;28;19931;-69
2021/05/27 14:04:50;;;;;;;;;;;;;;;;;;5068657;28;19928;-69
2021/05/27 14:07:16;;;;;;;;;;;;;;;;;;5066618;28;19925;-69
2021/05/27 14:09:43;;;;;;;;;;;;;;;;;;5067751;28;20024;-69
2021/05/27 14:12:09;;;;;;;;;;;;;;;;;;5067152;28;19925;-69
2021/05/27 14:14:36;;;;;;;;;;;;;;;;;;5067413;28;19925;-69
2021/05/27 14:17:02;;;;;;;;;;;;;;;;;;5067180;28;20323;-69
2021/05/27 14:19:29;;;;;;;;;;;;;;;;;;5068237;28;20011;-70
2021/05/27 14:21:55;;;;;;;;;;;;;;;;;;5067710;28;20294;-68
2021/05/27 14:24:22;;;;;;;;;;;;;;;;;;5066826;28;19925;-68
2021/05/27 14:26:48;;;;;;;;;;;;;;;;;;5068752;28;20015;-69
2021/05/27 14:29:15;;;;;;;;;;;;;;;;;;5068985;28;20392;-71
2021/05/27 14:31:41;;;;;;;;;;;;;;;;;;5068599;28;19980;-69
2021/05/27 14:34:08;;;;;;;;;;;;;;;;;;5067604;28;19940;-69
2021/05/27 14:36:34;;;;;;;;;;;;;;;;;;5069146;28;19924;-68
2021/05/27 14:39:01;;;;;;;;;;;;;;;;;;5067753;28;19928;-68
2021/05/27 14:41:27;;;;;;;;;;;;;;;;;;5066310;28;19925;-68
2021/05/27 14:43:54;;;;;;;;;;;;;;;;;;5068407;28;19925;-69
2021/05/27 14:46:20;;;;;;;;;;;;;;;;;;5065948;28;19931;-69
2021/05/27 14:48:47;;;;;;;;;;;;;;;;;;5069533;28;19925;-68
2021/05/27 14:51:13;;;;;;;;;;;;;;;;;;5069678;28;19931;-68
2021/05/27 14:53:40;;;;;;;;;;;;;;;;;;5069450;28;19994;-68
2021/05/27 14:56:06;;;;;;;;;;;;;;;;;;5064659;28;19925;-67
2021/05/27 14:58:36;;;;;;;;;;;;;;;;;;5068443;28;20392;-67
2021/05/27 15:01:02;;;;;;;;;;;;;;;;;;5069181;28;19928;-67
2021/05/27 15:03:29;;;;;;;;;;;;;;;;;;5068984;28;20023;-68
2021/05/27 15:05:55;;;;;;;;;;;;;;;;;;5064154;28;19928;-67
2021/05/27 15:08:22;;;;;;;;;;;;;;;;;;5068526;28;20279;-67
2021/05/27 15:10:48;;;;;;;;;;;;;;;;;;5067940;28;19935;-67
2021/05/27 15:13:15;;;;;;;;;;;;;;;;;;5063018;28;19929;-67
2021/05/27 15:15:42;;;;;;;;;;;;;;;;;;5065020;28;19924;-69
2021/05/27 15:18:08;;;;;;;;;;;;;;;;;;5068000;28;19971;-67
2021/05/27 15:20:35;;;;;;;;;;;;;;;;;;5065672;28;20521;-67
2021/05/27 15:23:01;;;;;;;;;;;;;;;;;;5066870;28;20005;-68
2021/05/27 15:25:28;;;;;;;;;;;;;;;;;;5068187;28;19928;-70
2021/05/27 15:27:57;;;;;;;;;;;;;;;;;;5068254;28;19970;-68
2021/05/27 15:30:24;;;;;;;;;;;;;;;;;;5065694;28;20027;-69
2021/05/27 15:32:50;;;;;;;;;;;;;;;;;;5067912;28;20379;-68
2021/05/27 15:35:17;;;;;;;;;;;;;;;;;;5066119;28;20280;-68
2021/05/27 15:37:43;;;;;;;;;;;;;;;;;;5065866;28;20347;-68
2021/05/27 15:40:10;;;;;;;;;;;;;;;;;;5065793;28;19925;-69
2021/05/27 15:42:37;;;;;;;;;;;;;;;;;;5065107;28;19928;-69
2021/05/27 15:45:03;;;;;;;;;;;;;;;;;;5064250;28;19924;-67
2021/05/27 15:47:30;;;;;;;;;;;;;;;;;;5065604;28;19937;-68
2021/05/27 15:49:56;;;;;;;;;;;;;;;;;;5064907;28;20015;-68
2021/05/27 15:52:23;;;;;;;;;;;;;;;;;;5066823;28;19928;-69
2021/05/27 15:54:52;;;;;;;;;;;;;;;;;;5064669;28;19967;-68
2021/05/27 15:57:18;;;;;;;;;;;;;;;;;;5066288;28;20047;-69
2021/05/27 15:59:45;;;;;;;;;;;;;;;;;;5065915;28;19928;-68
2021/05/27 16:02:12;;;;;;;;;;;;;;;;;;5064372;28;19950;-68
2021/05/27 16:04:40;;;;;;;;;;;;;;;;;;5064177;28;20294;-68
2021/05/27 16:07:08;;;;;;;;;;;;;;;;;;5064243;28;19924;-67
2021/05/27 16:09:34;;;;;;;;;;;;;;;;;;5064439;28;19932;-68
2021/05/27 16:12:01;;;;;;;;;;;;;;;;;;5065753;28;19948;-69
2021/05/27 16:14:27;;;;;;;;;;;;;;;;;;5062654;28;19929;-68
2021/05/27 16:16:54;;;;;;;;;;;;;;;;;;5067014;28;19935;-68
2021/05/27 16:19:21;;;;;;;;;;;;;;;;;;5066960;28;19964;-68
2021/05/27 16:21:47;;;;;;;;;;;;;;;;;;5064071;28;19947;-69
2021/05/27 16:24:14;;;;;;;;;;;;;;;;;;5064979;28;19925;-68
2021/05/27 16:26:40;;;;;;;;;;;;;;;;;;5064752;28;20292;-68
2021/05/27 16:29:08;;;;;;;;;;;;;;;;;;5065034;28;19950;-70
2021/05/27 16:31:35;;;;;;;;;;;;;;;;;;5064326;28;19964;-68
2021/05/27 16:34:06;;;;;;;;;;;;;;;;;;5064659;28;20304;-69
2021/05/27 16:39:18;;;;;;;;;;;;;;;;;;5062468;28;19935;-69
2021/05/27 16:41:44;;;;;;;;;;;;;;;;;;5066489;28;19924;-68
2021/05/27 16:44:11;;;;;;;;;;;;;;;;;;5065589;28;19931;-68
2021/05/27 16:46:37;;;;;;;;;;;;;;;;;;5063618;28;19928;-69
2021/05/27 16:49:04;;;;;;;;;;;;;;;;;;5061310;28;20019;-67
2021/05/27 16:51:30;;;;;;;;;;;;;;;;;;5064822;28;19982;-67
2021/05/27 16:53:57;;;;;;;;;;;;;;;;;;5065751;28;20564;-67
2021/05/27 16:56:23;;;;;;;;;;;;;;;;;;5067732;28;19928;-67